Canandaigua, New York
Current Conditions -  °F | °C
As of 10:53 PM on Saturday 22 Nov 2014 (Local Time) from KPEO Reporting Station
Light Rain Light Rain  
Wind Chill: 36°   Ceiling: 3100
Heat Index: 43°   Visibility: 10mi
Dew Point: 38°   Wind: 14mph
Humidity: 82%   Direction: 220°SW
Pressure: 30.02"   Gusts: 21mph
Location:  42.89°N, 77.28°W
Report Text: KPEO 230353Z AUTO 22012G18KT 10SM -RA OVC031 06/03 A3002 RMK AO2 RAB00E09B41 SLP175 P0000 T00610033
Loading
Personal Weather Stations






























Interactive Weather Map New forecast layout! Learn more

10-Day Weather Forecast

Advertisements
Track Severe Weather on mobile